sensor_id;sensor_type;location;lat;lon;timestamp;P1;durP1;ratioP1;P2;durP2;ratioP2
52414;SDS011;38340;52.964;6.086;2022-08-19T00:01:23;15.52;;;8.63;;
52414;SDS011;38340;52.964;6.086;2022-08-19T00:03:50;11.25;;;8.73;;
52414;SDS011;38340;52.964;6.086;2022-08-19T00:06:16;12.05;;;8.15;;
52414;SDS011;38340;52.964;6.086;2022-08-19T00:08:42;10.57;;;8.45;;
52414;SDS011;38340;52.964;6.086;2022-08-19T00:11:08;10.35;;;8.27;;
52414;SDS011;38340;52.964;6.086;2022-08-19T00:13:34;13.98;;;9.23;;
52414;SDS011;38340;52.964;6.086;2022-08-19T00:16:00;10.57;;;8.30;;
52414;SDS011;38340;52.964;6.086;2022-08-19T00:18:27;10.90;;;8.15;;
52414;SDS011;38340;52.964;6.086;2022-08-19T00:20:53;8.23;;;5.72;;
52414;SDS011;38340;52.964;6.086;2022-08-19T00:23:19;7.18;;;4.53;;
52414;SDS011;38340;52.964;6.086;2022-08-19T00:25:45;7.78;;;3.65;;
52414;SDS011;38340;52.964;6.086;2022-08-19T00:28:10;111.20;;;11.05;;
52414;SDS011;38340;52.964;6.086;2022-08-19T00:30:36;174.27;;;14.15;;
52414;SDS011;38340;52.964;6.086;2022-08-19T00:33:02;15.10;;;7.20;;
52414;SDS011;38340;52.964;6.086;2022-08-19T00:35:28;24.95;;;6.97;;
52414;SDS011;38340;52.964;6.086;2022-08-19T00:37:54;10.02;;;5.78;;
52414;SDS011;38340;52.964;6.086;2022-08-19T00:40:20;9.68;;;6.93;;
52414;SDS011;38340;52.964;6.086;2022-08-19T00:42:46;8.40;;;6.57;;
52414;SDS011;38340;52.964;6.086;2022-08-19T00:45:17;8.85;;;6.57;;
52414;SDS011;38340;52.964;6.086;2022-08-19T00:47:45;7.32;;;5.97;;
52414;SDS011;38340;52.964;6.086;2022-08-19T00:50:12;9.05;;;6.28;;
52414;SDS011;38340;52.964;6.086;2022-08-19T00:52:41;7.95;;;6.80;;
52414;SDS011;38340;52.964;6.086;2022-08-19T00:55:12;10.38;;;7.88;;
52414;SDS011;38340;52.964;6.086;2022-08-19T00:57:48;22.00;;;5.07;;
52414;SDS011;38340;52.964;6.086;2022-08-19T01:00:20;7.43;;;5.72;;
52414;SDS011;38340;52.964;6.086;2022-08-19T01:02:48;5.20;;;3.60;;
52414;SDS011;38340;52.964;6.086;2022-08-19T01:05:16;3.50;;;2.60;;
52414;SDS011;38340;52.964;6.086;2022-08-19T01:07:46;5.38;;;3.90;;
52414;SDS011;38340;52.964;6.086;2022-08-19T01:10:17;6.25;;;4.50;;
52414;SDS011;38340;52.964;6.086;2022-08-19T01:12:48;4.63;;;3.58;;
52414;SDS011;38340;52.964;6.086;2022-08-19T01:15:16;3.92;;;3.00;;
52414;SDS011;38340;52.964;6.086;2022-08-19T01:17:44;5.25;;;4.07;;
52414;SDS011;38340;52.964;6.086;2022-08-19T01:20:17;5.88;;;4.25;;
52414;SDS011;38340;52.964;6.086;2022-08-19T01:22:46;4.72;;;4.15;;
52414;SDS011;38340;52.964;6.086;2022-08-19T01:25:15;5.95;;;4.65;;
52414;SDS011;38340;52.964;6.086;2022-08-19T01:27:45;7.45;;;4.45;;
52414;SDS011;38340;52.964;6.086;2022-08-19T01:30:14;5.85;;;4.53;;
52414;SDS011;38340;52.964;6.086;2022-08-19T01:32:43;4.90;;;4.00;;
52414;SDS011;38340;52.964;6.086;2022-08-19T01:35:09;5.85;;;4.85;;
52414;SDS011;38340;52.964;6.086;2022-08-19T01:37:46;5.47;;;3.63;;
52414;SDS011;38340;52.964;6.086;2022-08-19T01:40:14;8.60;;;3.70;;
52414;SDS011;38340;52.964;6.086;2022-08-19T01:42:40;9.00;;;5.03;;
52414;SDS011;38340;52.964;6.086;2022-08-19T01:45:06;7.90;;;6.10;;
52414;SDS011;38340;52.964;6.086;2022-08-19T01:47:33;7.68;;;6.15;;
52414;SDS011;38340;52.964;6.086;2022-08-19T01:50:01;6.75;;;5.13;;
52414;SDS011;38340;52.964;6.086;2022-08-19T01:52:27;8.40;;;6.07;;
52414;SDS011;38340;52.964;6.086;2022-08-19T01:54:52;7.80;;;6.70;;
52414;SDS011;38340;52.964;6.086;2022-08-19T01:57:18;9.20;;;6.18;;
52414;SDS011;38340;52.964;6.086;2022-08-19T01:59:44;6.65;;;5.03;;
52414;SDS011;38340;52.964;6.086;2022-08-19T02:02:10;6.63;;;5.03;;
52414;SDS011;38340;52.964;6.086;2022-08-19T02:04:36;6.22;;;4.40;;
52414;SDS011;38340;52.964;6.086;2022-08-19T02:07:03;6.38;;;4.50;;
52414;SDS011;38340;52.964;6.086;2022-08-19T02:09:30;5.63;;;4.47;;
52414;SDS011;38340;52.964;6.086;2022-08-19T02:11:56;4.68;;;3.92;;
52414;SDS011;38340;52.964;6.086;2022-08-19T02:14:22;5.38;;;4.05;;
52414;SDS011;38340;52.964;6.086;2022-08-19T02:16:48;7.53;;;5.00;;
52414;SDS011;38340;52.964;6.086;2022-08-19T02:19:14;8.23;;;5.82;;
52414;SDS011;38340;52.964;6.086;2022-08-19T02:21:39;6.60;;;5.00;;
52414;SDS011;38340;52.964;6.086;2022-08-19T02:24:05;8.18;;;5.55;;
52414;SDS011;38340;52.964;6.086;2022-08-19T02:26:32;9.63;;;5.78;;
52414;SDS011;38340;52.964;6.086;2022-08-19T02:28:59;10.15;;;5.80;;
52414;SDS011;38340;52.964;6.086;2022-08-19T02:31:25;8.13;;;5.40;;
52414;SDS011;38340;52.964;6.086;2022-08-19T02:33:53;6.60;;;4.97;;
52414;SDS011;38340;52.964;6.086;2022-08-19T02:36:20;9.63;;;6.35;;
52414;SDS011;38340;52.964;6.086;2022-08-19T02:38:46;7.25;;;5.78;;
52414;SDS011;38340;52.964;6.086;2022-08-19T02:41:14;7.47;;;5.65;;
52414;SDS011;38340;52.964;6.086;2022-08-19T02:43:44;11.32;;;6.57;;
52414;SDS011;38340;52.964;6.086;2022-08-19T02:46:11;10.70;;;6.22;;
52414;SDS011;38340;52.964;6.086;2022-08-19T02:48:38;5.68;;;4.43;;
52414;SDS011;38340;52.964;6.086;2022-08-19T02:51:04;8.63;;;5.60;;
52414;SDS011;38340;52.964;6.086;2022-08-19T02:53:30;6.57;;;5.38;;
52414;SDS011;38340;52.964;6.086;2022-08-19T02:55:56;7.50;;;5.53;;
52414;SDS011;38340;52.964;6.086;2022-08-19T02:58:22;7.53;;;5.85;;
52414;SDS011;38340;52.964;6.086;2022-08-19T03:00:50;8.38;;;6.13;;
52414;SDS011;38340;52.964;6.086;2022-08-19T03:03:18;10.45;;;7.35;;
52414;SDS011;38340;52.964;6.086;2022-08-19T03:05:44;9.77;;;6.68;;
52414;SDS011;38340;52.964;6.086;2022-08-19T03:08:11;7.82;;;5.20;;
52414;SDS011;38340;52.964;6.086;2022-08-19T03:10:41;7.60;;;6.15;;
52414;SDS011;38340;52.964;6.086;2022-08-19T03:13:10;7.90;;;5.80;;
52414;SDS011;38340;52.964;6.086;2022-08-19T03:15:41;9.60;;;6.95;;
52414;SDS011;38340;52.964;6.086;2022-08-19T03:18:08;11.35;;;8.02;;
52414;SDS011;38340;52.964;6.086;2022-08-19T03:20:39;7.10;;;5.55;;
52414;SDS011;38340;52.964;6.086;2022-08-19T03:23:12;9.23;;;5.88;;
52414;SDS011;38340;52.964;6.086;2022-08-19T03:25:39;8.00;;;5.82;;
52414;SDS011;38340;52.964;6.086;2022-08-19T03:28:07;7.93;;;5.63;;
52414;SDS011;38340;52.964;6.086;2022-08-19T03:30:32;7.20;;;5.95;;
52414;SDS011;38340;52.964;6.086;2022-08-19T03:32:58;6.57;;;4.85;;
52414;SDS011;38340;52.964;6.086;2022-08-19T03:35:24;6.70;;;4.80;;
52414;SDS011;38340;52.964;6.086;2022-08-19T03:37:49;8.68;;;5.65;;
52414;SDS011;38340;52.964;6.086;2022-08-19T03:40:15;6.65;;;4.82;;
52414;SDS011;38340;52.964;6.086;2022-08-19T03:42:44;6.28;;;4.32;;
52414;SDS011;38340;52.964;6.086;2022-08-19T03:45:11;8.52;;;5.10;;
52414;SDS011;38340;52.964;6.086;2022-08-19T03:47:37;4.78;;;3.05;;
52414;SDS011;38340;52.964;6.086;2022-08-19T03:50:03;5.20;;;3.53;;
52414;SDS011;38340;52.964;6.086;2022-08-19T03:52:29;6.25;;;3.83;;
52414;SDS011;38340;52.964;6.086;2022-08-19T03:54:55;5.25;;;4.18;;
52414;SDS011;38340;52.964;6.086;2022-08-19T03:57:21;6.43;;;4.60;;
52414;SDS011;38340;52.964;6.086;2022-08-19T03:59:46;10.02;;;5.63;;
52414;SDS011;38340;52.964;6.086;2022-08-19T04:02:12;7.25;;;5.32;;
52414;SDS011;38340;52.964;6.086;2022-08-19T04:04:39;6.55;;;5.10;;
52414;SDS011;38340;52.964;6.086;2022-08-19T04:07:08;7.57;;;5.28;;
52414;SDS011;38340;52.964;6.086;2022-08-19T04:09:35;5.32;;;4.07;;
52414;SDS011;38340;52.964;6.086;2022-08-19T04:12:04;6.65;;;5.03;;
52414;SDS011;38340;52.964;6.086;2022-08-19T04:14:30;5.55;;;3.88;;
52414;SDS011;38340;52.964;6.086;2022-08-19T04:16:57;9.07;;;3.90;;
52414;SDS011;38340;52.964;6.086;2022-08-19T04:19:24;7.82;;;5.47;;
52414;SDS011;38340;52.964;6.086;2022-08-19T04:21:52;10.48;;;6.05;;
52414;SDS011;38340;52.964;6.086;2022-08-19T04:24:19;8.73;;;6.45;;
52414;SDS011;38340;52.964;6.086;2022-08-19T04:26:46;10.18;;;6.65;;
52414;SDS011;38340;52.964;6.086;2022-08-19T04:29:14;9.13;;;5.95;;
52414;SDS011;38340;52.964;6.086;2022-08-19T04:31:43;8.18;;;5.85;;
52414;SDS011;38340;52.964;6.086;2022-08-19T04:34:10;8.30;;;6.25;;
52414;SDS011;38340;52.964;6.086;2022-08-19T04:36:39;6.28;;;4.82;;
52414;SDS011;38340;52.964;6.086;2022-08-19T04:39:10;6.10;;;3.75;;
52414;SDS011;38340;52.964;6.086;2022-08-19T04:41:39;8.43;;;4.85;;
52414;SDS011;38340;52.964;6.086;2022-08-19T04:44:23;7.83;;;5.90;;
52414;SDS011;38340;52.964;6.086;2022-08-19T04:46:50;8.88;;;6.57;;
52414;SDS011;38340;52.964;6.086;2022-08-19T04:49:17;11.60;;;7.13;;
52414;SDS011;38340;52.964;6.086;2022-08-19T04:51:44;8.18;;;5.93;;
52414;SDS011;38340;52.964;6.086;2022-08-19T04:54:12;8.35;;;5.50;;
52414;SDS011;38340;52.964;6.086;2022-08-19T04:56:39;9.20;;;6.47;;
52414;SDS011;38340;52.964;6.086;2022-08-19T04:59:05;9.32;;;7.60;;
52414;SDS011;38340;52.964;6.086;2022-08-19T05:01:33;10.23;;;7.28;;
52414;SDS011;38340;52.964;6.086;2022-08-19T05:04:01;14.23;;;9.20;;
52414;SDS011;38340;52.964;6.086;2022-08-19T05:06:29;12.05;;;8.60;;
52414;SDS011;38340;52.964;6.086;2022-08-19T05:08:58;11.40;;;7.10;;
52414;SDS011;38340;52.964;6.086;2022-08-19T05:11:30;9.93;;;7.28;;
52414;SDS011;38340;52.964;6.086;2022-08-19T05:13:57;11.48;;;8.07;;
52414;SDS011;38340;52.964;6.086;2022-08-19T05:16:24;11.38;;;7.40;;
52414;SDS011;38340;52.964;6.086;2022-08-19T05:18:51;12.38;;;8.70;;
52414;SDS011;38340;52.964;6.086;2022-08-19T05:21:35;12.68;;;9.57;;
52414;SDS011;38340;52.964;6.086;2022-08-19T05:24:20;13.30;;;9.48;;
52414;SDS011;38340;52.964;6.086;2022-08-19T05:26:47;12.73;;;9.32;;
52414;SDS011;38340;52.964;6.086;2022-08-19T05:29:16;12.95;;;9.65;;
52414;SDS011;38340;52.964;6.086;2022-08-19T05:31:44;15.75;;;10.07;;
52414;SDS011;38340;52.964;6.086;2022-08-19T05:34:11;13.77;;;10.13;;
52414;SDS011;38340;52.964;6.086;2022-08-19T05:36:40;16.60;;;11.88;;
52414;SDS011;38340;52.964;6.086;2022-08-19T05:39:07;15.32;;;11.40;;
52414;SDS011;38340;52.964;6.086;2022-08-19T05:41:35;14.57;;;11.15;;
52414;SDS011;38340;52.964;6.086;2022-08-19T05:44:05;14.15;;;10.75;;
52414;SDS011;38340;52.964;6.086;2022-08-19T05:46:34;14.85;;;11.43;;
52414;SDS011;38340;52.964;6.086;2022-08-19T05:49:02;17.45;;;12.60;;
52414;SDS011;38340;52.964;6.086;2022-08-19T05:51:29;16.83;;;12.45;;
52414;SDS011;38340;52.964;6.086;2022-08-19T05:53:55;16.25;;;12.88;;
52414;SDS011;38340;52.964;6.086;2022-08-19T05:56:21;17.38;;;12.77;;
52414;SDS011;38340;52.964;6.086;2022-08-19T05:58:46;16.65;;;12.88;;
52414;SDS011;38340;52.964;6.086;2022-08-19T06:01:13;19.90;;;13.93;;
52414;SDS011;38340;52.964;6.086;2022-08-19T06:03:41;18.40;;;13.52;;
52414;SDS011;38340;52.964;6.086;2022-08-19T06:06:08;17.33;;;14.10;;
52414;SDS011;38340;52.964;6.086;2022-08-19T06:08:35;16.70;;;13.32;;
52414;SDS011;38340;52.964;6.086;2022-08-19T06:11:13;18.35;;;12.75;;
52414;SDS011;38340;52.964;6.086;2022-08-19T06:13:45;17.13;;;12.88;;
52414;SDS011;38340;52.964;6.086;2022-08-19T06:16:15;18.98;;;13.82;;
52414;SDS011;38340;52.964;6.086;2022-08-19T06:18:50;19.77;;;15.23;;
52414;SDS011;38340;52.964;6.086;2022-08-19T06:21:18;19.42;;;13.00;;
52414;SDS011;38340;52.964;6.086;2022-08-19T06:23:46;19.90;;;13.85;;
52414;SDS011;38340;52.964;6.086;2022-08-19T06:26:13;20.50;;;14.23;;
52414;SDS011;38340;52.964;6.086;2022-08-19T06:28:40;19.13;;;14.70;;
52414;SDS011;38340;52.964;6.086;2022-08-19T06:31:11;19.38;;;14.18;;
52414;SDS011;38340;52.964;6.086;2022-08-19T06:33:39;19.48;;;15.07;;
52414;SDS011;38340;52.964;6.086;2022-08-19T06:36:05;21.63;;;16.00;;
52414;SDS011;38340;52.964;6.086;2022-08-19T06:38:32;19.92;;;14.50;;
52414;SDS011;38340;52.964;6.086;2022-08-19T06:41:01;21.25;;;15.45;;
52414;SDS011;38340;52.964;6.086;2022-08-19T06:43:28;20.95;;;15.32;;
52414;SDS011;38340;52.964;6.086;2022-08-19T06:45:54;21.33;;;16.42;;
52414;SDS011;38340;52.964;6.086;2022-08-19T06:48:20;20.58;;;15.38;;
52414;SDS011;38340;52.964;6.086;2022-08-19T06:50:45;21.38;;;15.65;;
52414;SDS011;38340;52.964;6.086;2022-08-19T06:53:12;20.63;;;15.45;;
52414;SDS011;38340;52.964;6.086;2022-08-19T06:55:38;21.10;;;15.80;;
52414;SDS011;38340;52.964;6.086;2022-08-19T06:58:04;20.73;;;16.13;;
52414;SDS011;38340;52.964;6.086;2022-08-19T07:00:30;22.88;;;15.93;;
52414;SDS011;38340;52.964;6.086;2022-08-19T07:02:55;19.25;;;15.27;;
52414;SDS011;38340;52.964;6.086;2022-08-19T07:05:21;21.08;;;16.13;;
52414;SDS011;38340;52.964;6.086;2022-08-19T07:07:47;22.67;;;15.90;;
52414;SDS011;38340;52.964;6.086;2022-08-19T07:10:13;20.73;;;14.50;;
52414;SDS011;38340;52.964;6.086;2022-08-19T07:12:39;19.42;;;16.02;;
52414;SDS011;38340;52.964;6.086;2022-08-19T07:15:05;20.58;;;15.40;;
52414;SDS011;38340;52.964;6.086;2022-08-19T07:17:33;21.05;;;15.98;;
52414;SDS011;38340;52.964;6.086;2022-08-19T07:20:01;21.70;;;16.05;;
52414;SDS011;38340;52.964;6.086;2022-08-19T07:22:26;20.05;;;16.13;;
52414;SDS011;38340;52.964;6.086;2022-08-19T07:24:52;21.13;;;16.05;;
52414;SDS011;38340;52.964;6.086;2022-08-19T07:27:18;20.52;;;15.88;;
52414;SDS011;38340;52.964;6.086;2022-08-19T07:29:44;20.25;;;13.68;;
52414;SDS011;38340;52.964;6.086;2022-08-19T07:32:11;19.63;;;14.95;;
52414;SDS011;38340;52.964;6.086;2022-08-19T07:34:36;18.70;;;15.80;;
52414;SDS011;38340;52.964;6.086;2022-08-19T07:37:06;17.92;;;15.30;;
52414;SDS011;38340;52.964;6.086;2022-08-19T07:39:33;20.60;;;15.13;;
52414;SDS011;38340;52.964;6.086;2022-08-19T07:42:01;18.95;;;14.70;;
52414;SDS011;38340;52.964;6.086;2022-08-19T07:44:31;17.85;;;14.93;;
52414;SDS011;38340;52.964;6.086;2022-08-19T07:46:58;18.40;;;15.25;;
52414;SDS011;38340;52.964;6.086;2022-08-19T07:49:25;20.65;;;15.70;;
52414;SDS011;38340;52.964;6.086;2022-08-19T07:54:19;19.65;;;16.17;;
52414;SDS011;38340;52.964;6.086;2022-08-19T07:56:46;24.88;;;17.17;;
52414;SDS011;38340;52.964;6.086;2022-08-19T07:59:12;23.92;;;17.00;;
52414;SDS011;38340;52.964;6.086;2022-08-19T08:01:38;22.67;;;17.63;;
52414;SDS011;38340;52.964;6.086;2022-08-19T08:04:05;27.67;;;19.65;;
52414;SDS011;38340;52.964;6.086;2022-08-19T08:06:51;25.30;;;19.27;;
52414;SDS011;38340;52.964;6.086;2022-08-19T08:09:38;23.77;;;18.77;;
52414;SDS011;38340;52.964;6.086;2022-08-19T08:12:10;23.73;;;17.50;;
52414;SDS011;38340;52.964;6.086;2022-08-19T08:14:43;24.27;;;19.23;;
52414;SDS011;38340;52.964;6.086;2022-08-19T08:17:15;25.23;;;18.83;;
52414;SDS011;38340;52.964;6.086;2022-08-19T08:19:42;22.40;;;18.40;;
52414;SDS011;38340;52.964;6.086;2022-08-19T08:22:09;22.10;;;18.17;;
52414;SDS011;38340;52.964;6.086;2022-08-19T08:25:03;22.88;;;19.85;;
52414;SDS011;38340;52.964;6.086;2022-08-19T08:27:31;24.92;;;20.58;;
52414;SDS011;38340;52.964;6.086;2022-08-19T08:30:00;27.08;;;20.83;;
52414;SDS011;38340;52.964;6.086;2022-08-19T08:32:25;24.00;;;18.85;;
52414;SDS011;38340;52.964;6.086;2022-08-19T08:34:52;23.05;;;18.67;;
52414;SDS011;38340;52.964;6.086;2022-08-19T08:37:18;25.95;;;20.70;;
52414;SDS011;38340;52.964;6.086;2022-08-19T08:39:44;22.75;;;19.60;;
52414;SDS011;38340;52.964;6.086;2022-08-19T08:44:59;24.77;;;21.25;;
52414;SDS011;38340;52.964;6.086;2022-08-19T08:47:40;22.50;;;19.83;;
52414;SDS011;38340;52.964;6.086;2022-08-19T08:50:17;25.55;;;19.65;;
52414;SDS011;38340;52.964;6.086;2022-08-19T08:52:51;22.75;;;18.85;;
52414;SDS011;38340;52.964;6.086;2022-08-19T08:55:22;23.38;;;19.98;;
52414;SDS011;38340;52.964;6.086;2022-08-19T08:57:59;23.92;;;20.55;;
52414;SDS011;38340;52.964;6.086;2022-08-19T09:00:32;24.42;;;21.17;;
52414;SDS011;38340;52.964;6.086;2022-08-19T09:03:02;23.88;;;21.35;;
52414;SDS011;38340;52.964;6.086;2022-08-19T09:05:45;21.73;;;18.95;;
52414;SDS011;38340;52.964;6.086;2022-08-19T09:08:18;24.45;;;19.90;;
52414;SDS011;38340;52.964;6.086;2022-08-19T09:10:49;23.98;;;19.83;;
52414;SDS011;38340;52.964;6.086;2022-08-19T09:13:26;25.70;;;19.08;;
52414;SDS011;38340;52.964;6.086;2022-08-19T09:16:10;23.55;;;20.52;;
52414;SDS011;38340;52.964;6.086;2022-08-19T09:21:07;20.42;;;17.92;;
52414;SDS011;38340;52.964;6.086;2022-08-19T09:23:34;19.35;;;17.33;;
52414;SDS011;38340;52.964;6.086;2022-08-19T09:26:00;21.65;;;18.60;;
52414;SDS011;38340;52.964;6.086;2022-08-19T09:28:26;24.58;;;18.25;;
52414;SDS011;38340;52.964;6.086;2022-08-19T09:30:53;21.70;;;17.85;;
52414;SDS011;38340;52.964;6.086;2022-08-19T09:33:19;27.23;;;19.00;;
52414;SDS011;38340;52.964;6.086;2022-08-19T09:35:44;22.13;;;19.33;;
52414;SDS011;38340;52.964;6.086;2022-08-19T09:38:11;19.77;;;16.38;;
52414;SDS011;38340;52.964;6.086;2022-08-19T09:40:37;18.02;;;14.60;;
52414;SDS011;38340;52.964;6.086;2022-08-19T09:43:03;17.65;;;13.00;;
52414;SDS011;38340;52.964;6.086;2022-08-19T09:45:30;19.80;;;14.57;;
52414;SDS011;38340;52.964;6.086;2022-08-19T09:47:56;18.10;;;14.48;;
52414;SDS011;38340;52.964;6.086;2022-08-19T09:50:22;20.30;;;12.52;;
52414;SDS011;38340;52.964;6.086;2022-08-19T09:52:49;14.43;;;11.68;;
52414;SDS011;38340;52.964;6.086;2022-08-19T09:55:15;18.13;;;11.25;;
52414;SDS011;38340;52.964;6.086;2022-08-19T09:57:41;15.60;;;10.35;;
52414;SDS011;38340;52.964;6.086;2022-08-19T10:00:07;16.63;;;11.35;;
52414;SDS011;38340;52.964;6.086;2022-08-19T10:02:34;14.57;;;11.15;;
52414;SDS011;38340;52.964;6.086;2022-08-19T10:05:00;17.83;;;11.32;;
52414;SDS011;38340;52.964;6.086;2022-08-19T10:07:45;16.58;;;10.98;;
52414;SDS011;38340;52.964;6.086;2022-08-19T10:10:10;15.10;;;11.18;;
52414;SDS011;38340;52.964;6.086;2022-08-19T10:12:36;17.73;;;12.35;;
52414;SDS011;38340;52.964;6.086;2022-08-19T10:15:03;18.42;;;12.80;;
52414;SDS011;38340;52.964;6.086;2022-08-19T10:17:31;16.10;;;11.95;;
52414;SDS011;38340;52.964;6.086;2022-08-19T10:20:00;17.42;;;13.25;;
52414;SDS011;38340;52.964;6.086;2022-08-19T10:22:27;17.48;;;13.63;;
52414;SDS011;38340;52.964;6.086;2022-08-19T10:24:54;22.38;;;12.95;;
52414;SDS011;38340;52.964;6.086;2022-08-19T10:27:20;20.13;;;14.40;;
52414;SDS011;38340;52.964;6.086;2022-08-19T10:29:46;15.32;;;12.30;;
52414;SDS011;38340;52.964;6.086;2022-08-19T10:32:12;18.80;;;12.68;;
52414;SDS011;38340;52.964;6.086;2022-08-19T10:34:38;15.05;;;11.35;;
52414;SDS011;38340;52.964;6.086;2022-08-19T10:37:05;13.07;;;9.80;;
52414;SDS011;38340;52.964;6.086;2022-08-19T10:39:31;13.52;;;11.98;;
52414;SDS011;38340;52.964;6.086;2022-08-19T10:42:03;17.17;;;12.13;;
52414;SDS011;38340;52.964;6.086;2022-08-19T10:44:31;13.85;;;10.18;;
52414;SDS011;38340;52.964;6.086;2022-08-19T10:46:57;11.02;;;8.30;;
52414;SDS011;38340;52.964;6.086;2022-08-19T10:49:23;9.90;;;7.57;;
52414;SDS011;38340;52.964;6.086;2022-08-19T10:51:49;10.35;;;6.85;;
52414;SDS011;38340;52.964;6.086;2022-08-19T10:54:33;11.90;;;9.00;;
52414;SDS011;38340;52.964;6.086;2022-08-19T10:57:18;12.23;;;9.20;;
52414;SDS011;38340;52.964;6.086;2022-08-19T10:59:44;16.50;;;11.38;;
52414;SDS011;38340;52.964;6.086;2022-08-19T11:02:10;11.82;;;9.10;;
52414;SDS011;38340;52.964;6.086;2022-08-19T11:04:38;11.27;;;8.88;;
52414;SDS011;38340;52.964;6.086;2022-08-19T11:07:04;15.27;;;10.18;;
52414;SDS011;38340;52.964;6.086;2022-08-19T11:09:31;13.30;;;11.50;;
52414;SDS011;38340;52.964;6.086;2022-08-19T11:12:00;15.50;;;11.88;;
52414;SDS011;38340;52.964;6.086;2022-08-19T11:14:26;14.85;;;11.32;;
52414;SDS011;38340;52.964;6.086;2022-08-19T11:16:53;15.55;;;12.15;;
52414;SDS011;38340;52.964;6.086;2022-08-19T11:19:21;14.00;;;11.80;;
52414;SDS011;38340;52.964;6.086;2022-08-19T11:21:48;19.02;;;11.98;;
52414;SDS011;38340;52.964;6.086;2022-08-19T11:24:19;16.17;;;13.85;;
52414;SDS011;38340;52.964;6.086;2022-08-19T11:26:47;17.48;;;13.70;;
52414;SDS011;38340;52.964;6.086;2022-08-19T11:29:17;16.30;;;14.15;;
52414;SDS011;38340;52.964;6.086;2022-08-19T11:31:45;19.73;;;14.15;;
52414;SDS011;38340;52.964;6.086;2022-08-19T11:34:14;18.42;;;11.65;;
52414;SDS011;38340;52.964;6.086;2022-08-19T11:36:44;14.40;;;10.82;;
52414;SDS011;38340;52.964;6.086;2022-08-19T11:39:13;22.45;;;13.80;;
52414;SDS011;38340;52.964;6.086;2022-08-19T11:41:40;18.40;;;14.23;;
52414;SDS011;38340;52.964;6.086;2022-08-19T11:44:06;17.83;;;15.05;;
52414;SDS011;38340;52.964;6.086;2022-08-19T11:46:33;19.08;;;13.60;;
52414;SDS011;38340;52.964;6.086;2022-08-19T11:49:02;21.42;;;15.52;;
52414;SDS011;38340;52.964;6.086;2022-08-19T11:51:31;21.33;;;17.73;;
52414;SDS011;38340;52.964;6.086;2022-08-19T11:53:59;21.08;;;15.75;;
52414;SDS011;38340;52.964;6.086;2022-08-19T11:56:26;21.42;;;15.57;;
52414;SDS011;38340;52.964;6.086;2022-08-19T11:58:52;25.60;;;19.40;;
52414;SDS011;38340;52.964;6.086;2022-08-19T12:01:20;25.10;;;21.27;;
52414;SDS011;38340;52.964;6.086;2022-08-19T12:03:47;26.05;;;19.63;;
52414;SDS011;38340;52.964;6.086;2022-08-19T12:06:15;26.50;;;16.52;;
52414;SDS011;38340;52.964;6.086;2022-08-19T12:08:44;22.77;;;15.85;;
52414;SDS011;38340;52.964;6.086;2022-08-19T12:11:11;18.42;;;13.15;;
52414;SDS011;38340;52.964;6.086;2022-08-19T12:13:37;16.25;;;12.45;;
52414;SDS011;38340;52.964;6.086;2022-08-19T12:16:10;21.23;;;14.40;;
52414;SDS011;38340;52.964;6.086;2022-08-19T12:21:07;22.60;;;15.77;;
52414;SDS011;38340;52.964;6.086;2022-08-19T12:23:35;22.98;;;16.52;;
52414;SDS011;38340;52.964;6.086;2022-08-19T12:26:02;28.10;;;17.73;;
52414;SDS011;38340;52.964;6.086;2022-08-19T12:28:27;21.83;;;18.05;;
52414;SDS011;38340;52.964;6.086;2022-08-19T12:30:53;23.00;;;16.98;;
52414;SDS011;38340;52.964;6.086;2022-08-19T12:33:21;24.88;;;15.70;;
52414;SDS011;38340;52.964;6.086;2022-08-19T12:35:49;24.85;;;17.45;;
52414;SDS011;38340;52.964;6.086;2022-08-19T12:38:16;21.92;;;17.33;;
52414;SDS011;38340;52.964;6.086;2022-08-19T12:40:44;20.83;;;15.82;;
52414;SDS011;38340;52.964;6.086;2022-08-19T12:43:14;18.70;;;16.05;;
52414;SDS011;38340;52.964;6.086;2022-08-19T12:45:43;21.08;;;15.95;;
52414;SDS011;38340;52.964;6.086;2022-08-19T12:48:10;22.73;;;13.48;;
52414;SDS011;38340;52.964;6.086;2022-08-19T12:50:35;19.75;;;14.05;;
52414;SDS011;38340;52.964;6.086;2022-08-19T12:53:04;18.05;;;12.95;;
52414;SDS011;38340;52.964;6.086;2022-08-19T12:55:30;17.08;;;12.90;;
52414;SDS011;38340;52.964;6.086;2022-08-19T12:57:56;15.45;;;13.57;;
52414;SDS011;38340;52.964;6.086;2022-08-19T13:00:22;19.98;;;14.23;;
52414;SDS011;38340;52.964;6.086;2022-08-19T13:02:49;15.95;;;13.57;;
52414;SDS011;38340;52.964;6.086;2022-08-19T13:05:18;20.77;;;14.93;;
52414;SDS011;38340;52.964;6.086;2022-08-19T13:07:52;21.38;;;15.10;;
52414;SDS011;38340;52.964;6.086;2022-08-19T13:10:24;22.77;;;13.98;;
52414;SDS011;38340;52.964;6.086;2022-08-19T13:12:52;23.45;;;15.82;;
52414;SDS011;38340;52.964;6.086;2022-08-19T13:15:19;21.23;;;16.55;;
52414;SDS011;38340;52.964;6.086;2022-08-19T13:17:50;19.38;;;14.98;;
52414;SDS011;38340;52.964;6.086;2022-08-19T13:20:18;18.50;;;13.90;;
52414;SDS011;38340;52.964;6.086;2022-08-19T13:22:48;21.85;;;14.00;;
52414;SDS011;38340;52.964;6.086;2022-08-19T13:25:14;13.38;;;11.10;;
52414;SDS011;38340;52.964;6.086;2022-08-19T13:27:42;17.92;;;10.80;;
52414;SDS011;38340;52.964;6.086;2022-08-19T13:30:09;16.20;;;11.10;;
52414;SDS011;38340;52.964;6.086;2022-08-19T13:32:55;15.82;;;11.63;;
52414;SDS011;38340;52.964;6.086;2022-08-19T13:35:41;17.52;;;13.02;;
52414;SDS011;38340;52.964;6.086;2022-08-19T13:38:16;7.70;;;4.30;;
52414;SDS011;38340;52.964;6.086;2022-08-19T13:40:45;4.47;;;3.03;;
52414;SDS011;38340;52.964;6.086;2022-08-19T13:43:12;3.38;;;1.83;;
52414;SDS011;38340;52.964;6.086;2022-08-19T13:45:38;2.47;;;1.60;;
52414;SDS011;38340;52.964;6.086;2022-08-19T13:48:06;4.15;;;1.55;;
52414;SDS011;38340;52.964;6.086;2022-08-19T13:50:33;3.10;;;1.45;;
52414;SDS011;38340;52.964;6.086;2022-08-19T13:53:09;3.40;;;1.73;;
52414;SDS011;38340;52.964;6.086;2022-08-19T13:55:39;3.70;;;1.38;;
52414;SDS011;38340;52.964;6.086;2022-08-19T13:58:07;2.83;;;1.40;;
52414;SDS011;38340;52.964;6.086;2022-08-19T14:00:35;2.63;;;1.50;;
52414;SDS011;38340;52.964;6.086;2022-08-19T14:03:02;6.88;;;1.90;;
52414;SDS011;38340;52.964;6.086;2022-08-19T14:05:28;3.13;;;2.00;;
52414;SDS011;38340;52.964;6.086;2022-08-19T14:07:55;4.50;;;1.85;;
52414;SDS011;38340;52.964;6.086;2022-08-19T14:10:21;3.95;;;2.10;;
52414;SDS011;38340;52.964;6.086;2022-08-19T14:12:48;7.13;;;4.07;;
52414;SDS011;38340;52.964;6.086;2022-08-19T14:15:14;8.85;;;5.13;;
52414;SDS011;38340;52.964;6.086;2022-08-19T14:17:41;7.70;;;5.35;;
52414;SDS011;38340;52.964;6.086;2022-08-19T14:20:09;6.65;;;4.93;;
52414;SDS011;38340;52.964;6.086;2022-08-19T14:22:39;10.05;;;5.45;;
52414;SDS011;38340;52.964;6.086;2022-08-19T14:25:06;7.15;;;5.40;;
52414;SDS011;38340;52.964;6.086;2022-08-19T14:27:34;10.07;;;6.15;;
52414;SDS011;38340;52.964;6.086;2022-08-19T14:30:01;7.10;;;5.65;;
52414;SDS011;38340;52.964;6.086;2022-08-19T14:32:28;10.93;;;6.75;;
52414;SDS011;38340;52.964;6.086;2022-08-19T14:34:54;12.18;;;8.02;;
52414;SDS011;38340;52.964;6.086;2022-08-19T14:37:20;11.88;;;8.00;;
52414;SDS011;38340;52.964;6.086;2022-08-19T14:39:47;13.43;;;8.75;;
52414;SDS011;38340;52.964;6.086;2022-08-19T14:42:12;13.32;;;9.90;;
52414;SDS011;38340;52.964;6.086;2022-08-19T14:44:40;14.10;;;11.23;;
52414;SDS011;38340;52.964;6.086;2022-08-19T14:47:06;19.98;;;13.50;;